createdAt,value
2023-03-20T00:00:57.429Z,10.05
2023-03-20T00:01:57.419Z,9.94
2023-03-20T00:02:57.405Z,9.87
2023-03-20T00:03:57.438Z,9.95
2023-03-20T00:04:57.416Z,9.92
2023-03-20T00:05:57.373Z,9.91
2023-03-20T00:06:57.367Z,9.94
2023-03-20T00:07:57.351Z,9.91
2023-03-20T00:08:57.370Z,9.91
2023-03-20T00:09:57.332Z,9.82
2023-03-20T00:10:57.326Z,9.89
2023-03-20T00:11:57.325Z,9.95
2023-03-20T00:12:57.301Z,9.86
2023-03-20T00:13:57.293Z,9.97
2023-03-20T00:14:57.283Z,9.84
2023-03-20T00:15:57.299Z,9.82
2023-03-20T00:16:57.264Z,9.89
2023-03-20T00:17:57.254Z,9.95
2023-03-20T00:18:57.244Z,9.87
2023-03-20T00:19:57.233Z,9.80
2023-03-20T00:20:57.224Z,9.86
2023-03-20T00:21:57.232Z,9.80
2023-03-20T00:22:57.200Z,9.79
2023-03-20T00:23:57.197Z,9.82
2023-03-20T00:24:57.188Z,9.80
2023-03-20T00:25:57.171Z,9.82
2023-03-20T00:26:57.163Z,9.82
2023-03-20T00:27:57.147Z,9.86
2023-03-20T00:28:57.137Z,9.86
2023-03-20T00:29:57.129Z,9.83
2023-03-20T00:30:57.156Z,9.82
2023-03-20T00:31:57.110Z,9.84
2023-03-20T00:32:57.136Z,9.83
2023-03-20T00:33:57.098Z,9.80
2023-03-20T00:34:57.081Z,9.83
2023-03-20T00:35:57.108Z,9.77
2023-03-20T00:36:57.058Z,9.80
2023-03-20T00:37:57.049Z,9.83
2023-03-20T00:38:57.037Z,9.79
2023-03-20T00:39:57.030Z,9.82
2023-03-20T00:40:57.022Z,9.84
2023-03-20T00:41:57.021Z,9.80
2023-03-20T00:42:56.996Z,9.79
2023-03-20T00:43:56.994Z,9.89
2023-03-20T00:44:56.979Z,9.79
2023-03-20T00:45:56.969Z,9.72
2023-03-20T00:46:57.092Z,9.74
2023-03-20T00:47:56.944Z,9.74
2023-03-20T00:48:56.937Z,9.65
2023-03-20T00:49:56.929Z,9.69
2023-03-20T00:50:56.921Z,9.66
2023-03-20T00:51:56.911Z,9.72
2023-03-20T00:52:56.896Z,9.74
2023-03-20T00:53:56.884Z,9.72
2023-03-20T00:54:56.875Z,9.72
2023-03-20T00:55:56.870Z,9.74
2023-03-20T00:56:56.867Z,9.73
2023-03-20T00:57:56.842Z,9.79
2023-03-20T00:58:56.839Z,9.77
2023-03-20T00:59:56.826Z,9.76
2023-03-20T01:00:56.832Z,9.73
2023-03-20T01:01:56.861Z,9.68
2023-03-20T01:02:56.797Z,9.69
2023-03-20T01:03:56.786Z,9.72
2023-03-20T01:04:56.774Z,9.76
2023-03-20T01:05:56.765Z,9.72
2023-03-20T01:06:56.755Z,9.69
2023-03-20T01:07:56.743Z,9.74
2023-03-20T01:08:56.731Z,9.69
2023-03-20T01:09:56.731Z,9.72
2023-03-20T01:10:56.711Z,9.72
2023-03-20T01:11:56.705Z,9.66
2023-03-20T01:12:56.686Z,9.73
2023-03-20T01:13:56.680Z,9.72
2023-03-20T01:14:56.676Z,9.73
2023-03-20T01:15:56.664Z,9.73
2023-03-20T01:16:56.653Z,9.69
2023-03-20T01:17:56.635Z,9.68
2023-03-20T01:18:56.631Z,9.77
2023-03-20T01:19:56.616Z,9.72
2023-03-20T01:20:56.613Z,9.69
2023-03-20T01:21:56.600Z,9.74
2023-03-20T01:22:56.604Z,9.65
2023-03-20T01:23:56.576Z,9.65
2023-03-20T01:24:56.568Z,9.69
2023-03-20T01:25:56.574Z,9.76
2023-03-20T01:26:56.546Z,9.69
2023-03-20T01:27:56.530Z,9.68
2023-03-20T01:28:56.528Z,9.74
2023-03-20T01:29:56.515Z,9.74
2023-03-20T01:30:56.502Z,9.73
2023-03-20T01:31:56.535Z,9.73
2023-03-20T01:32:56.513Z,9.72
2023-03-20T01:33:56.473Z,9.72
2023-03-20T01:34:56.456Z,9.68
2023-03-20T01:35:56.533Z,9.69
2023-03-20T01:36:56.442Z,9.69
2023-03-20T01:37:56.428Z,9.76
2023-03-20T01:38:56.427Z,9.72
2023-03-20T01:39:56.414Z,9.72
2023-03-20T01:40:56.405Z,9.73
2023-03-20T01:41:56.396Z,9.79
2023-03-20T01:42:56.378Z,9.74
2023-03-20T01:43:56.381Z,9.79
2023-03-20T01:44:56.379Z,9.73
2023-03-20T01:45:56.412Z,9.72
2023-03-20T01:46:56.348Z,9.74
2023-03-20T01:47:56.329Z,9.72
2023-03-20T01:48:56.321Z,9.76
2023-03-20T01:49:56.311Z,9.74
2023-03-20T01:50:56.303Z,9.69
2023-03-20T01:51:56.293Z,9.74
2023-03-20T01:52:56.280Z,9.72
2023-03-20T01:53:56.273Z,9.73
2023-03-20T01:54:56.260Z,9.73
2023-03-20T01:55:56.250Z,9.72
2023-03-20T01:56:56.240Z,9.72
2023-03-20T01:57:56.231Z,9.72
2023-03-20T01:58:56.223Z,9.72
2023-03-20T01:59:56.210Z,9.72
2023-03-20T02:00:56.220Z,9.76
2023-03-20T02:01:56.192Z,9.72
2023-03-20T02:02:56.177Z,9.74
2023-03-20T02:03:56.172Z,9.80
2023-03-20T02:04:56.209Z,9.64
2023-03-20T02:05:56.146Z,9.74
2023-03-20T02:06:56.151Z,9.73
2023-03-20T02:07:56.121Z,9.62
2023-03-20T02:08:56.119Z,9.69
2023-03-20T02:09:56.103Z,9.66
2023-03-20T02:10:56.096Z,9.72
2023-03-20T02:11:56.086Z,9.68
2023-03-20T02:12:56.073Z,9.73
2023-03-20T02:13:56.062Z,9.72
2023-03-20T02:14:56.054Z,9.74
2023-03-20T02:15:56.045Z,9.74
2023-03-20T02:16:56.074Z,9.74
2023-03-20T02:17:56.020Z,9.72
2023-03-20T02:18:56.013Z,9.87
2023-03-20T02:19:56.000Z,9.73
2023-03-20T02:20:55.993Z,9.79
2023-03-20T02:21:55.984Z,9.82
2023-03-20T02:22:55.976Z,9.76
2023-03-20T02:23:55.962Z,9.80
2023-03-20T02:24:55.951Z,9.83
2023-03-20T02:25:55.939Z,9.80
2023-03-20T02:26:55.931Z,9.69
2023-03-20T02:27:55.916Z,9.79
2023-03-20T02:28:55.911Z,9.82
2023-03-20T02:29:55.900Z,9.84
2023-03-20T02:30:55.933Z,9.83
2023-03-20T02:31:55.878Z,9.77
2023-03-20T02:32:55.894Z,9.83
2023-03-20T02:33:55.856Z,9.84
2023-03-20T02:34:55.848Z,9.86
2023-03-20T02:35:55.862Z,9.89
2023-03-20T02:36:55.824Z,9.79
2023-03-20T02:37:55.812Z,9.77
2023-03-20T02:38:55.805Z,9.83
2023-03-20T02:39:55.795Z,9.82
2023-03-20T02:40:55.782Z,9.82
2023-03-20T02:41:55.780Z,9.77
2023-03-20T02:42:55.760Z,9.86
2023-03-20T02:43:55.756Z,9.94
2023-03-20T02:44:55.747Z,9.92
2023-03-20T02:45:55.792Z,9.97
2023-03-20T02:46:55.727Z,9.94
2023-03-20T02:47:55.708Z,9.89
2023-03-20T02:48:55.724Z,9.83
2023-03-20T02:49:55.692Z,9.95
2023-03-20T02:50:55.681Z,9.95
2023-03-20T02:51:55.675Z,9.99
2023-03-20T02:52:55.658Z,9.98
2023-03-20T02:53:55.649Z,9.95
2023-03-20T02:54:55.656Z,9.99
2023-03-20T02:55:55.635Z,9.97
2023-03-20T02:56:55.621Z,9.98
2023-03-20T02:57:55.605Z,9.94
2023-03-20T02:58:55.601Z,9.99
2023-03-20T02:59:55.591Z,10.04
2023-03-20T03:00:55.580Z,10.04
2023-03-20T03:01:55.640Z,9.94
2023-03-20T03:02:55.563Z,10.04
2023-03-20T03:03:55.548Z,9.99
2023-03-20T03:04:55.535Z,10.07
2023-03-20T03:05:55.533Z,10.04
2023-03-20T03:06:55.519Z,10.10
2023-03-20T03:07:55.506Z,10.05
2023-03-20T03:08:55.498Z,10.05
2023-03-20T03:09:55.495Z,10.05
2023-03-20T03:10:55.475Z,10.05
2023-03-20T03:11:55.467Z,10.04
2023-03-20T03:12:55.455Z,10.05
2023-03-20T03:13:55.451Z,10.09
2023-03-20T03:14:55.436Z,10.05
2023-03-20T03:15:55.444Z,10.04
2023-03-20T03:16:55.414Z,10.07
2023-03-20T03:17:55.401Z,10.07
2023-03-20T03:18:55.401Z,10.05
2023-03-20T03:19:55.383Z,10.09
2023-03-20T03:20:55.374Z,10.09
2023-03-20T03:21:55.362Z,10.12
2023-03-20T03:22:55.351Z,10.07
2023-03-20T03:23:55.345Z,10.05
2023-03-20T03:24:55.340Z,10.10
2023-03-20T03:25:55.321Z,10.15
2023-03-20T03:26:55.313Z,10.12
2023-03-20T03:27:55.297Z,10.01
2023-03-20T03:28:55.292Z,10.04
2023-03-20T03:29:55.282Z,10.02
2023-03-20T03:30:55.324Z,10.01
2023-03-20T03:31:55.262Z,10.02
2023-03-20T03:32:55.321Z,10.13
2023-03-20T03:33:55.243Z,10.02
2023-03-20T03:34:55.240Z,10.04
2023-03-20T03:35:55.230Z,10.07
2023-03-20T03:36:55.212Z,10.05
2023-03-20T03:37:55.197Z,10.05
2023-03-20T03:38:55.190Z,10.05
2023-03-20T03:39:55.180Z,10.05
2023-03-20T03:40:55.178Z,10.04
2023-03-20T03:41:55.159Z,10.05
2023-03-20T03:42:55.148Z,10.05
2023-03-20T03:43:55.137Z,10.15
2023-03-20T03:44:55.130Z,10.04
2023-03-20T03:45:55.126Z,10.09
2023-03-20T03:46:55.173Z,10.07
2023-03-20T03:47:55.091Z,10.10
2023-03-20T03:48:55.085Z,10.07
2023-03-20T03:49:55.072Z,10.04
2023-03-20T03:50:55.064Z,10.07
2023-03-20T03:51:55.057Z,10.09
2023-03-20T03:52:55.039Z,10.07
2023-03-20T03:53:55.034Z,10.09
2023-03-20T03:54:55.024Z,10.10
2023-03-20T03:55:55.104Z,10.10
2023-03-20T03:56:55.011Z,10.12
2023-03-20T03:57:54.989Z,10.04
2023-03-20T03:58:54.987Z,10.04
2023-03-20T03:59:54.973Z,10.10
2023-03-20T04:00:54.962Z,10.07
2023-03-20T04:01:55.005Z,10.09
2023-03-20T04:02:54.944Z,10.04
2023-03-20T04:03:54.931Z,10.05
2023-03-20T04:04:55.051Z,10.05
2023-03-20T04:05:54.919Z,10.07
2023-03-20T04:06:54.908Z,10.12
2023-03-20T04:07:54.889Z,10.10
2023-03-20T04:08:54.879Z,10.01
2023-03-20T04:09:54.873Z,10.15
2023-03-20T04:10:54.866Z,10.10
2023-03-20T04:11:54.853Z,10.05
2023-03-20T04:12:54.836Z,10.10
2023-03-20T04:13:54.831Z,10.04
2023-03-20T04:14:54.824Z,10.02
2023-03-20T04:15:54.858Z,10.09
2023-03-20T04:16:54.806Z,10.04
2023-03-20T04:17:54.792Z,10.04
2023-03-20T04:18:54.813Z,10.02
2023-03-20T04:19:54.772Z,10.07
2023-03-20T04:20:54.760Z,10.10
2023-03-20T04:21:54.749Z,10.07
2023-03-20T04:22:54.742Z,10.02
2023-03-20T04:23:54.730Z,10.04
2023-03-20T04:24:54.724Z,10.10
2023-03-20T04:25:54.712Z,10.07
2023-03-20T04:26:54.712Z,10.10
2023-03-20T04:27:54.686Z,9.99
2023-03-20T04:28:54.679Z,9.99
2023-03-20T04:29:54.671Z,10.12
2023-03-20T04:30:54.658Z,10.04
2023-03-20T04:31:54.718Z,10.02
2023-03-20T04:32:54.691Z,10.02
2023-03-20T04:33:54.637Z,10.02
2023-03-20T04:34:54.620Z,10.02
2023-03-20T04:35:54.670Z,10.02
2023-03-20T04:36:54.594Z,10.05
2023-03-20T04:37:54.603Z,10.17
2023-03-20T04:38:57.387Z,10.09
2023-03-20T04:39:54.565Z,10.05
2023-03-20T04:40:54.555Z,10.04
2023-03-20T04:41:54.551Z,10.05
2023-03-20T04:42:54.535Z,10.10
2023-03-20T04:43:54.525Z,10.12
2023-03-20T04:44:54.512Z,10.10
2023-03-20T04:45:54.535Z,10.12
2023-03-20T04:46:54.500Z,10.07
2023-03-20T04:47:54.481Z,10.10
2023-03-20T04:48:54.479Z,10.09
2023-03-20T04:49:54.465Z,10.10
2023-03-20T04:50:54.453Z,10.09
2023-03-20T04:51:54.449Z,10.12
2023-03-20T04:52:54.435Z,10.09
2023-03-20T04:53:54.438Z,10.12
2023-03-20T04:54:54.414Z,10.12
2023-03-20T04:55:54.411Z,10.12
2023-03-20T04:56:54.392Z,10.05
2023-03-20T04:57:54.385Z,10.12
2023-03-20T04:58:54.372Z,10.13
2023-03-20T04:59:54.364Z,10.13
2023-03-20T05:00:54.376Z,10.09
2023-03-20T05:01:54.344Z,10.12
2023-03-20T05:02:54.331Z,10.10
2023-03-20T05:03:54.382Z,10.13
2023-03-20T05:04:54.312Z,10.26
2023-03-20T05:05:54.308Z,10.23
2023-03-20T05:06:54.303Z,10.26
2023-03-20T05:07:54.278Z,10.23
2023-03-20T05:08:54.266Z,10.22
2023-03-20T05:09:54.257Z,10.19
2023-03-20T05:10:54.248Z,10.22
2023-03-20T05:11:54.241Z,10.28
2023-03-20T05:12:54.227Z,10.35
2023-03-20T05:13:54.215Z,10.25
2023-03-20T05:14:54.203Z,10.23
2023-03-20T05:15:54.200Z,10.28
2023-03-20T05:16:54.222Z,10.34
2023-03-20T05:17:54.176Z,10.40
2023-03-20T05:18:54.170Z,10.40
2023-03-20T05:19:54.164Z,10.35
2023-03-20T05:20:54.155Z,10.35
2023-03-20T05:21:54.134Z,10.33
2023-03-20T05:22:54.124Z,10.35
2023-03-20T05:23:54.123Z,10.28
2023-03-20T05:24:54.101Z,10.35
2023-03-20T05:25:54.094Z,10.34
2023-03-20T05:26:54.088Z,10.48
2023-03-20T05:27:54.071Z,10.42
2023-03-20T05:28:54.069Z,10.37
2023-03-20T05:29:54.054Z,10.34
2023-03-20T05:30:54.051Z,10.42
2023-03-20T05:31:54.029Z,10.42
2023-03-20T05:32:54.066Z,10.35
2023-03-20T05:33:54.006Z,10.40
2023-03-20T05:34:53.997Z,10.38
2023-03-20T05:35:54.042Z,10.37
2023-03-20T05:36:53.980Z,10.33
2023-03-20T05:37:53.968Z,10.37
2023-03-20T05:38:53.982Z,10.40
2023-03-20T05:39:53.951Z,10.33
2023-03-20T05:40:53.940Z,10.42
2023-03-20T05:41:53.930Z,10.37
2023-03-20T05:42:53.919Z,10.37
2023-03-20T05:43:53.912Z,10.34
2023-03-20T05:44:53.919Z,10.41
2023-03-20T05:45:53.989Z,10.33
2023-03-20T05:46:53.877Z,10.35
2023-03-20T05:47:53.866Z,10.38
2023-03-20T05:48:53.872Z,10.30
2023-03-20T05:49:53.846Z,10.33
2023-03-20T05:50:53.841Z,10.38
2023-03-20T05:51:53.825Z,10.35
2023-03-20T05:52:53.814Z,10.34
2023-03-20T05:53:53.805Z,10.35
2023-03-20T05:54:53.795Z,10.46
2023-03-20T05:55:53.790Z,10.31
2023-03-20T05:56:53.842Z,10.34
2023-03-20T05:57:53.768Z,10.33
2023-03-20T05:58:53.760Z,10.35
2023-03-20T05:59:53.750Z,10.40
2023-03-20T06:00:53.738Z,10.44
2023-03-20T06:01:53.737Z,10.33
2023-03-20T06:02:53.760Z,10.41
2023-03-20T06:03:53.760Z,10.38
2023-03-20T06:04:53.699Z,10.41
2023-03-20T06:05:53.687Z,10.33
2023-03-20T06:06:53.679Z,10.41
2023-03-20T06:07:53.663Z,10.46
2023-03-20T06:08:53.656Z,10.40
2023-03-20T06:09:53.650Z,10.46
2023-03-20T06:10:53.636Z,10.40
2023-03-20T06:11:53.631Z,10.46
2023-03-20T06:12:53.615Z,10.35
2023-03-20T06:13:53.604Z,10.41
2023-03-20T06:14:53.596Z,10.40
2023-03-20T06:15:53.644Z,10.41
2023-03-20T06:16:53.583Z,10.53
2023-03-20T06:17:53.564Z,10.49
2023-03-20T06:18:53.564Z,10.48
2023-03-20T06:19:53.554Z,10.42
2023-03-20T06:20:53.540Z,10.40
2023-03-20T06:21:53.521Z,10.38
2023-03-20T06:22:53.522Z,10.38
2023-03-20T06:23:53.508Z,10.46
2023-03-20T06:24:55.940Z,10.51
2023-03-20T06:25:53.486Z,10.46
2023-03-20T06:26:53.475Z,10.48
2023-03-20T06:27:53.462Z,10.51
2023-03-20T06:28:53.452Z,10.41
2023-03-20T06:29:53.455Z,10.49
2023-03-20T06:30:53.612Z,10.57
2023-03-20T06:31:53.424Z,10.54
2023-03-20T06:32:53.425Z,10.46
2023-03-20T06:33:53.401Z,10.42
2023-03-20T06:34:53.393Z,10.38
2023-03-20T06:35:53.392Z,10.41
2023-03-20T06:36:53.369Z,10.46
2023-03-20T06:37:53.356Z,10.46
2023-03-20T06:38:53.348Z,10.46
2023-03-20T06:39:53.339Z,10.44
2023-03-20T06:40:53.344Z,10.48
2023-03-20T06:41:53.324Z,10.53
2023-03-20T06:42:53.307Z,10.48
2023-03-20T06:43:53.300Z,10.49
2023-03-20T06:44:53.286Z,10.53
2023-03-20T06:45:53.277Z,10.51
2023-03-20T06:46:53.346Z,10.56
2023-03-20T06:47:53.256Z,10.44
2023-03-20T06:48:53.248Z,10.42
2023-03-20T06:49:53.237Z,10.56
2023-03-20T06:50:53.223Z,10.48
2023-03-20T06:51:53.219Z,10.53
2023-03-20T06:52:53.220Z,10.54
2023-03-20T06:53:53.194Z,10.44
2023-03-20T06:54:53.187Z,10.53
2023-03-20T06:55:53.182Z,10.51
2023-03-20T06:56:53.166Z,10.60
2023-03-20T06:57:53.161Z,10.57
2023-03-20T06:58:53.146Z,10.63
2023-03-20T06:59:53.152Z,10.68
2023-03-20T07:00:53.120Z,10.59
2023-03-20T07:01:53.168Z,10.59
2023-03-20T07:02:53.103Z,10.64
2023-03-20T07:03:53.096Z,10.61
2023-03-20T07:04:53.118Z,10.67
2023-03-20T07:05:53.081Z,10.79
2023-03-20T07:06:53.068Z,10.69
2023-03-20T07:07:53.057Z,10.78
2023-03-20T07:08:53.121Z,10.79
2023-03-20T07:09:53.038Z,10.89
2023-03-20T07:10:53.041Z,10.84
2023-03-20T07:11:53.024Z,10.96
2023-03-20T07:12:53.015Z,10.92
2023-03-20T07:13:53.003Z,10.99
2023-03-20T07:14:52.990Z,10.93
2023-03-20T07:16:03.691Z,10.97
2023-03-20T07:16:53.064Z,11.00
2023-03-20T07:17:52.962Z,10.90
2023-03-20T07:18:52.951Z,10.90
2023-03-20T07:19:52.968Z,10.94
2023-03-20T07:20:52.935Z,10.87
2023-03-20T07:21:52.920Z,10.89
2023-03-20T07:22:52.911Z,10.86
2023-03-20T07:23:52.907Z,10.92
2023-03-20T07:24:52.895Z,10.94
2023-03-20T07:25:52.890Z,10.92
2023-03-20T07:26:52.880Z,10.90
2023-03-20T07:27:52.868Z,10.97
2023-03-20T07:28:52.859Z,10.92
2023-03-20T07:29:52.852Z,10.92
2023-03-20T07:30:52.841Z,10.82
2023-03-20T07:31:52.872Z,10.79
2023-03-20T07:32:52.867Z,10.79
2023-03-20T07:33:52.817Z,10.78
2023-03-20T07:34:52.800Z,10.86
2023-03-20T07:35:52.823Z,10.76
2023-03-20T07:36:52.787Z,10.75
2023-03-20T07:37:52.764Z,10.79
2023-03-20T07:38:52.758Z,10.82
2023-03-20T07:39:52.753Z,10.75
2023-03-20T07:40:52.736Z,10.79
2023-03-20T07:41:52.729Z,10.81
2023-03-20T07:42:52.717Z,10.72
2023-03-20T07:43:52.708Z,10.76
2023-03-20T07:44:52.697Z,10.74
2023-03-20T07:45:52.699Z,10.72
2023-03-20T07:46:52.700Z,10.72
2023-03-20T07:47:52.684Z,10.81
2023-03-20T07:48:52.722Z,10.72
2023-03-20T07:49:52.648Z,10.79
2023-03-20T07:50:52.637Z,10.78
2023-03-20T07:51:52.628Z,10.79
2023-03-20T07:52:52.623Z,10.89
2023-03-20T07:53:52.648Z,10.89
2023-03-20T07:54:52.593Z,10.93
2023-03-20T07:55:52.626Z,10.96
2023-03-20T07:56:52.578Z,10.99
2023-03-20T07:57:52.590Z,10.96
2023-03-20T07:58:52.594Z,10.93
2023-03-20T07:59:52.548Z,10.96
2023-03-20T08:00:52.537Z,10.92
2023-03-20T08:01:52.529Z,10.93
2023-03-20T08:02:52.602Z,10.87
2023-03-20T08:03:52.622Z,10.93
2023-03-20T08:04:52.499Z,10.96
2023-03-20T08:05:52.484Z,10.97
2023-03-20T08:06:52.530Z,11.05
2023-03-20T08:07:52.477Z,11.04
2023-03-20T08:08:52.480Z,11.02
2023-03-20T08:09:52.457Z,10.99
2023-03-20T08:10:52.437Z,10.96
2023-03-20T08:11:52.432Z,10.99
2023-03-20T08:12:52.419Z,11.02
2023-03-20T08:13:52.415Z,11.10
2023-03-20T08:14:52.407Z,11.05
2023-03-20T08:15:52.396Z,11.15
2023-03-20T08:17:10.301Z,11.19
2023-03-20T08:17:52.369Z,11.08
2023-03-20T08:18:52.363Z,11.14
2023-03-20T08:19:52.357Z,11.15
2023-03-20T08:20:52.367Z,11.17
2023-03-20T08:21:52.338Z,11.19
2023-03-20T08:22:52.333Z,11.14
2023-03-20T08:23:52.316Z,11.15
2023-03-20T08:24:52.307Z,11.14
2023-03-20T08:25:52.312Z,11.10
2023-03-20T08:26:52.308Z,11.10
2023-03-20T08:27:52.278Z,11.14
2023-03-20T08:28:52.607Z,11.08
2023-03-20T08:29:52.272Z,11.07
2023-03-20T08:30:52.275Z,10.96
2023-03-20T08:31:52.244Z,11.02
2023-03-20T08:32:52.247Z,11.04
2023-03-20T08:33:52.226Z,11.04
2023-03-20T08:34:52.214Z,10.99
2023-03-20T08:35:52.226Z,11.05
2023-03-20T08:36:52.190Z,11.02
2023-03-20T08:37:52.177Z,11.07
2023-03-20T08:38:52.170Z,10.94
2023-03-20T08:39:52.172Z,11.04
2023-03-20T08:40:52.159Z,11.10
2023-03-20T08:41:52.147Z,11.04
2023-03-20T08:42:52.140Z,11.05
2023-03-20T08:43:52.127Z,11.08
2023-03-20T08:44:52.119Z,11.12
2023-03-20T08:45:52.176Z,11.12
2023-03-20T08:46:52.109Z,11.10
2023-03-20T08:47:52.093Z,11.07
2023-03-20T08:48:52.092Z,11.15
2023-03-20T08:49:52.062Z,11.11
2023-03-20T08:50:52.058Z,11.19
2023-03-20T08:51:52.046Z,11.10
2023-03-20T08:52:52.039Z,11.18
2023-03-20T08:53:52.024Z,11.23
2023-03-20T08:54:52.045Z,11.05
2023-03-20T08:55:52.006Z,11.04
2023-03-20T08:56:52.006Z,11.10
2023-03-20T08:57:52.022Z,11.17
2023-03-20T08:58:54.219Z,11.15
2023-03-20T08:59:52.547Z,11.14
2023-03-20T09:00:51.980Z,11.25
2023-03-20T09:01:51.997Z,11.35
2023-03-20T09:02:52.013Z,11.33
2023-03-20T09:03:51.970Z,11.32
2023-03-20T09:04:51.925Z,11.37
2023-03-20T09:05:51.905Z,11.40
2023-03-20T09:06:51.917Z,11.48
2023-03-20T09:07:51.892Z,11.44
2023-03-20T09:08:51.881Z,11.50
2023-03-20T09:09:51.873Z,11.51
2023-03-20T09:10:53.419Z,11.54
2023-03-20T09:11:52.555Z,11.44
2023-03-20T09:12:51.842Z,11.43
2023-03-20T09:13:51.831Z,11.45
2023-03-20T09:14:51.831Z,11.45
2023-03-20T09:15:51.866Z,11.51
2023-03-20T09:16:51.806Z,11.44
2023-03-20T09:17:51.787Z,11.55
2023-03-20T09:18:51.787Z,11.55
2023-03-20T09:19:51.776Z,11.54
2023-03-20T09:20:51.767Z,11.75
2023-03-20T09:21:51.761Z,11.77
2023-03-20T09:22:51.755Z,11.78
2023-03-20T09:23:51.739Z,11.83
2023-03-20T09:24:52.561Z,12.00
2023-03-20T09:25:51.718Z,11.87
2023-03-20T09:26:51.709Z,11.88
2023-03-20T09:27:51.699Z,11.94
2023-03-20T09:28:51.697Z,12.00
2023-03-20T09:29:52.557Z,11.86
2023-03-20T09:30:51.695Z,12.03
2023-03-20T09:31:51.668Z,12.06
2023-03-20T09:32:51.695Z,12.06
2023-03-20T09:33:51.648Z,12.07
2023-03-20T09:34:51.785Z,12.17
2023-03-20T09:35:51.641Z,12.29
2023-03-20T09:36:51.657Z,12.29
2023-03-20T09:37:51.613Z,12.27
2023-03-20T09:38:51.608Z,12.32
2023-03-20T09:39:51.594Z,12.32
2023-03-20T09:40:51.585Z,12.46
2023-03-20T09:41:57.171Z,12.46
2023-03-20T09:42:51.565Z,12.50
2023-03-20T09:43:51.566Z,12.67
2023-03-20T09:44:51.552Z,12.65
2023-03-20T09:45:51.544Z,12.73
2023-03-20T09:46:51.557Z,12.86
2023-03-20T09:47:51.521Z,13.01
2023-03-20T09:48:54.217Z,12.98
2023-03-20T09:49:52.076Z,13.01
2023-03-20T09:50:51.514Z,13.04
2023-03-20T09:51:51.493Z,13.27
2023-03-20T09:52:51.482Z,13.35
2023-03-20T09:53:52.192Z,13.46
2023-03-20T09:54:54.742Z,13.65
2023-03-20T09:55:51.529Z,13.72
2023-03-20T09:56:51.457Z,13.70
2023-03-20T09:57:51.448Z,13.68
2023-03-20T09:58:51.441Z,13.67
2023-03-20T09:59:51.431Z,13.71
2023-03-20T10:00:51.427Z,13.65
2023-03-20T10:01:51.447Z,13.41
2023-03-20T10:02:51.399Z,13.42
2023-03-20T10:03:51.392Z,13.42
2023-03-20T10:04:51.410Z,13.49
2023-03-20T10:05:51.376Z,13.47
2023-03-20T10:06:51.367Z,13.35
2023-03-20T10:07:51.357Z,13.30
2023-03-20T10:08:51.357Z,13.28
2023-03-20T10:09:51.345Z,13.28
2023-03-20T10:10:51.339Z,13.33
2023-03-20T10:11:51.326Z,13.41
2023-03-20T10:12:51.314Z,13.37
2023-03-20T10:13:51.310Z,13.35
2023-03-20T10:14:51.307Z,13.38
2023-03-20T10:15:51.311Z,13.42
2023-03-20T10:16:51.302Z,13.25
2023-03-20T10:17:51.278Z,13.33
2023-03-20T10:18:51.269Z,13.28
2023-03-20T10:19:51.257Z,13.35
2023-03-20T10:20:51.250Z,13.28
2023-03-20T10:21:51.244Z,13.27
2023-03-20T10:22:51.233Z,13.37
2023-03-20T10:23:51.229Z,13.41
2023-03-20T10:24:51.218Z,13.57
2023-03-20T10:25:51.216Z,13.57
2023-03-20T10:26:51.213Z,13.54
2023-03-20T10:27:51.193Z,13.52
2023-03-20T10:28:51.191Z,13.52
2023-03-20T10:29:51.178Z,13.59
2023-03-20T10:30:51.168Z,13.54
2023-03-20T10:31:51.208Z,13.50
2023-03-20T10:32:51.169Z,13.62
2023-03-20T10:33:51.145Z,13.65
2023-03-20T10:34:51.138Z,13.54
2023-03-20T10:35:51.187Z,13.68
2023-03-20T10:36:51.124Z,13.79
2023-03-20T10:37:51.115Z,13.72
2023-03-20T10:38:51.106Z,13.72
2023-03-20T10:39:51.097Z,13.79
2023-03-20T10:40:51.087Z,13.86
2023-03-20T10:41:51.085Z,13.86
2023-03-20T10:42:51.070Z,13.83
2023-03-20T10:43:51.066Z,13.95
2023-03-20T10:44:51.590Z,13.81
2023-03-20T10:45:51.065Z,13.74
2023-03-20T10:46:51.114Z,13.72
2023-03-20T10:47:51.154Z,13.68
2023-03-20T10:48:51.030Z,13.71
2023-03-20T10:49:51.945Z,13.74
2023-03-20T10:50:51.011Z,13.77
2023-03-20T10:51:51.014Z,13.74
2023-03-20T10:52:50.996Z,13.75
2023-03-20T10:53:50.994Z,13.70
2023-03-20T10:54:50.990Z,13.72
2023-03-20T10:55:50.970Z,13.72
2023-03-20T10:56:50.961Z,13.77
2023-03-20T10:57:50.954Z,13.75
2023-03-20T10:58:50.954Z,13.77
2023-03-20T10:59:51.588Z,13.77
2023-03-20T11:00:51.011Z,13.85
2023-03-20T11:01:50.924Z,13.86
2023-03-20T11:02:50.943Z,13.78
2023-03-20T11:03:51.018Z,13.75
2023-03-20T11:04:51.591Z,13.74
2023-03-20T11:06:08.257Z,13.74
2023-03-20T11:06:50.887Z,13.75
2023-03-20T11:07:50.876Z,13.89
2023-03-20T11:08:50.887Z,13.90
2023-03-20T11:09:50.864Z,13.99
2023-03-20T11:10:50.865Z,14.11
2023-03-20T11:11:50.868Z,14.08
2023-03-20T11:12:50.838Z,14.08
2023-03-20T11:13:50.843Z,14.08
2023-03-20T11:14:50.828Z,14.12
2023-03-20T11:15:50.817Z,14.26
2023-03-20T11:16:50.869Z,14.20
2023-03-20T11:17:50.799Z,14.35
2023-03-20T11:18:50.794Z,14.37
2023-03-20T11:19:51.598Z,14.25
2023-03-20T11:20:50.787Z,14.33
2023-03-20T11:21:50.787Z,14.36
2023-03-20T11:22:50.771Z,14.45
2023-03-20T11:23:50.767Z,14.45
2023-03-20T11:24:51.601Z,14.50
2023-03-20T11:25:50.733Z,14.62
2023-03-20T11:26:50.732Z,14.60
2023-03-20T11:27:50.731Z,14.68
2023-03-20T11:28:50.727Z,14.69
2023-03-20T11:29:50.716Z,14.72
2023-03-20T11:31:03.991Z,14.84
2023-03-20T11:31:50.751Z,14.79
2023-03-20T11:32:50.728Z,14.79
2023-03-20T11:33:50.680Z,14.89
2023-03-20T11:34:51.602Z,14.82
2023-03-20T11:35:50.694Z,14.92
2023-03-20T11:37:06.310Z,14.99
2023-03-20T11:37:50.652Z,14.91
2023-03-20T11:38:50.661Z,14.92
2023-03-20T11:39:51.608Z,14.99
2023-03-20T11:40:50.632Z,15.03
2023-03-20T11:41:50.619Z,14.99
2023-03-20T11:42:50.624Z,15.10
2023-03-20T11:43:50.611Z,15.14
2023-03-20T11:44:50.602Z,15.11
2023-03-20T11:45:50.722Z,15.11
2023-03-20T11:46:50.590Z,15.15
2023-03-20T11:47:50.584Z,15.11
2023-03-20T11:48:50.587Z,15.09
2023-03-20T11:49:50.644Z,15.14
2023-03-20T11:50:50.559Z,15.06
2023-03-20T11:51:50.551Z,15.07
2023-03-20T11:52:50.551Z,14.97
2023-03-20T11:53:50.540Z,14.89
2023-03-20T11:54:51.125Z,14.92
2023-03-20T11:55:50.523Z,14.92
2023-03-20T11:56:50.520Z,14.99
2023-03-20T11:57:50.507Z,14.94
2023-03-20T11:58:50.505Z,14.96
2023-03-20T11:59:51.125Z,14.89
2023-03-20T12:00:50.493Z,14.89
2023-03-20T12:01:50.494Z,14.89
2023-03-20T12:02:50.511Z,14.92
2023-03-20T12:03:50.496Z,14.99
2023-03-20T12:04:51.108Z,15.19
2023-03-20T12:05:50.458Z,15.42
2023-03-20T12:06:50.448Z,15.59
2023-03-20T12:07:50.449Z,15.79
2023-03-20T12:08:50.434Z,15.76
2023-03-20T12:09:51.115Z,15.80
2023-03-20T12:10:50.427Z,15.90
2023-03-20T12:11:50.418Z,16.02
2023-03-20T12:12:50.410Z,16.09
2023-03-20T12:13:50.401Z,16.00
2023-03-20T12:14:50.399Z,15.80
2023-03-20T12:15:50.472Z,15.77
2023-03-20T12:16:50.383Z,15.84
2023-03-20T12:17:50.377Z,16.04
2023-03-20T12:18:50.369Z,16.13
2023-03-20T12:19:50.375Z,16.01
2023-03-20T12:20:50.358Z,16.13
2023-03-20T12:21:50.350Z,16.29
2023-03-20T12:22:50.343Z,16.35
2023-03-20T12:23:50.363Z,16.29
2023-03-20T12:24:51.123Z,16.17
2023-03-20T12:25:50.326Z,16.16
2023-03-20T12:26:50.314Z,16.17
2023-03-20T12:27:50.313Z,15.97
2023-03-20T12:28:50.305Z,16.02
2023-03-20T12:29:50.301Z,16.00
2023-03-20T12:30:50.324Z,15.98
2023-03-20T12:31:50.291Z,16.10
2023-03-20T12:32:50.315Z,16.26
2023-03-20T12:33:50.273Z,16.29
2023-03-20T12:34:50.269Z,16.35
2023-03-20T12:35:50.280Z,16.16
2023-03-20T12:36:50.262Z,16.08
2023-03-20T12:37:50.255Z,16.04
2023-03-20T12:38:50.250Z,15.91
2023-03-20T12:39:51.143Z,15.97
2023-03-20T12:40:50.236Z,15.88
2023-03-20T12:41:50.234Z,15.88
2023-03-20T12:42:50.226Z,15.80
2023-03-20T12:43:50.220Z,15.82
2023-03-20T12:44:50.209Z,15.77
2023-03-20T12:45:50.202Z,15.84
2023-03-20T12:46:50.228Z,15.91
2023-03-20T12:47:50.197Z,16.08
2023-03-20T12:48:50.188Z,16.04
2023-03-20T12:49:50.176Z,16.01
2023-03-20T12:50:50.182Z,16.00
2023-03-20T12:51:50.169Z,15.82
2023-03-20T12:52:50.158Z,15.76
2023-03-20T12:53:50.166Z,15.86
2023-03-20T12:54:50.145Z,15.86
2023-03-20T12:55:50.139Z,15.88
2023-03-20T12:56:50.134Z,15.84
2023-03-20T12:57:50.131Z,15.73
2023-03-20T12:58:50.122Z,15.65